sensor_id;sensor_type;location;lat;lon;timestamp;pressure;altitude;pressure_sealevel;temperature;humidity
66398;BME280;54877;51.504;3.894;2023-07-13T00:00:27;101480.03;;;20.03;62.56
66398;BME280;54877;51.504;3.894;2023-07-13T00:02:53;101480.56;;;20.08;62.21
66398;BME280;54877;51.504;3.894;2023-07-13T00:05:21;101485.94;;;20.08;62.29
66398;BME280;54877;51.504;3.894;2023-07-13T00:07:48;101486.66;;;19.99;62.16
66398;BME280;54877;51.504;3.894;2023-07-13T00:10:14;101490.28;;;19.98;62.17
66398;BME280;54877;51.504;3.894;2023-07-13T00:12:40;101493.22;;;19.94;62.44
66398;BME280;54877;51.504;3.894;2023-07-13T00:15:07;101495.41;;;19.78;62.81
66398;BME280;54877;51.504;3.894;2023-07-13T00:17:41;101483.44;;;19.71;62.78
66398;BME280;54877;51.504;3.894;2023-07-13T00:20:10;101485.63;;;19.77;62.87
66398;BME280;54877;51.504;3.894;2023-07-13T00:22:36;101481.00;;;19.79;63.04
66398;BME280;54877;51.504;3.894;2023-07-13T00:25:02;101490.25;;;19.64;63.33
66398;BME280;54877;51.504;3.894;2023-07-13T00:27:27;101484.88;;;19.75;63.19
66398;BME280;54877;51.504;3.894;2023-07-13T00:29:55;101485.13;;;19.72;63.38
66398;BME280;54877;51.504;3.894;2023-07-13T00:32:20;101490.25;;;19.75;63.50
66398;BME280;54877;51.504;3.894;2023-07-13T00:34:46;101487.47;;;19.77;63.50
66398;BME280;54877;51.504;3.894;2023-07-13T00:37:12;101490.66;;;19.47;64.24
66398;BME280;54877;51.504;3.894;2023-07-13T00:39:37;101486.22;;;19.70;63.70
66398;BME280;54877;51.504;3.894;2023-07-13T00:42:04;101487.53;;;19.53;64.35
66398;BME280;54877;51.504;3.894;2023-07-13T00:44:29;101482.41;;;19.61;64.18
66398;BME280;54877;51.504;3.894;2023-07-13T00:46:55;101490.72;;;19.69;63.75
66398;BME280;54877;51.504;3.894;2023-07-13T00:49:23;101492.06;;;19.64;64.23
66398;BME280;54877;51.504;3.894;2023-07-13T00:51:55;101483.44;;;19.71;64.02
66398;BME280;54877;51.504;3.894;2023-07-13T00:54:26;101488.56;;;19.74;63.86
66398;BME280;54877;51.504;3.894;2023-07-13T00:56:55;101489.31;;;19.76;63.70
66398;BME280;54877;51.504;3.894;2023-07-13T00:59:24;101481.88;;;19.80;63.99
66398;BME280;54877;51.504;3.894;2023-07-13T01:01:50;101485.28;;;19.82;64.15
66398;BME280;54877;51.504;3.894;2023-07-13T01:04:16;101487.56;;;19.75;64.39
66398;BME280;54877;51.504;3.894;2023-07-13T01:06:42;101494.31;;;19.81;64.09
66398;BME280;54877;51.504;3.894;2023-07-13T01:09:09;101493.69;;;19.77;64.04
66398;BME280;54877;51.504;3.894;2023-07-13T01:11:35;101493.44;;;19.80;64.42
66398;BME280;54877;51.504;3.894;2023-07-13T01:14:01;101488.56;;;19.74;64.41
66398;BME280;54877;51.504;3.894;2023-07-13T01:16:28;101493.56;;;19.79;64.29
66398;BME280;54877;51.504;3.894;2023-07-13T01:18:59;101491.28;;;19.85;64.25
66398;BME280;54877;51.504;3.894;2023-07-13T01:21:27;101497.63;;;19.84;64.22
66398;BME280;54877;51.504;3.894;2023-07-13T01:23:55;101494.94;;;19.84;64.13
66398;BME280;54877;51.504;3.894;2023-07-13T01:26:21;101498.13;;;19.89;64.09
66398;BME280;54877;51.504;3.894;2023-07-13T01:28:46;101497.00;;;19.92;63.83
66398;BME280;54877;51.504;3.894;2023-07-13T01:31:12;101494.22;;;19.93;63.85
66398;BME280;54877;51.504;3.894;2023-07-13T01:33:39;101496.31;;;20.01;63.41
66398;BME280;54877;51.504;3.894;2023-07-13T01:36:08;101498.84;;;20.03;63.42
66398;BME280;54877;51.504;3.894;2023-07-13T01:38:35;101494.00;;;20.08;63.43
66398;BME280;54877;51.504;3.894;2023-07-13T01:41:02;101494.81;;;20.08;63.34
66398;BME280;54877;51.504;3.894;2023-07-13T01:43:28;101499.09;;;20.11;63.26
66398;BME280;54877;51.504;3.894;2023-07-13T01:45:54;101501.06;;;19.98;63.41
66398;BME280;54877;51.504;3.894;2023-07-13T01:48:19;101500.81;;;20.01;63.40
66398;BME280;54877;51.504;3.894;2023-07-13T01:50:45;101499.59;;;19.93;63.57
66398;BME280;54877;51.504;3.894;2023-07-13T01:53:12;101499.84;;;19.90;63.49
66398;BME280;54877;51.504;3.894;2023-07-13T01:55:37;101496.75;;;19.84;64.04
66398;BME280;54877;51.504;3.894;2023-07-13T01:58:03;101496.84;;;19.60;64.47
66398;BME280;54877;51.504;3.894;2023-07-13T02:00:29;101503.53;;;19.55;64.79
66398;BME280;54877;51.504;3.894;2023-07-13T02:02:55;101500.72;;;19.56;64.86
66398;BME280;54877;51.504;3.894;2023-07-13T02:05:21;101497.94;;;19.58;64.86
66398;BME280;54877;51.504;3.894;2023-07-13T02:07:46;101502.22;;;19.60;64.97
66398;BME280;54877;51.504;3.894;2023-07-13T02:10:12;101504.13;;;19.58;64.94
66398;BME280;54877;51.504;3.894;2023-07-13T02:12:37;101501.44;;;19.58;65.02
66398;BME280;54877;51.504;3.894;2023-07-13T02:15:04;101504.13;;;19.58;64.77
66398;BME280;54877;51.504;3.894;2023-07-13T02:17:30;101502.72;;;19.65;64.75
66398;BME280;54877;51.504;3.894;2023-07-13T02:19:55;101508.31;;;19.62;64.83
66398;BME280;54877;51.504;3.894;2023-07-13T02:22:21;101506.63;;;19.72;64.74
66398;BME280;54877;51.504;3.894;2023-07-13T02:24:47;101508.09;;;19.76;64.33
66398;BME280;54877;51.504;3.894;2023-07-13T02:27:13;101502.50;;;19.79;64.55
66398;BME280;54877;51.504;3.894;2023-07-13T02:29:38;101502.25;;;19.82;64.41
66398;BME280;54877;51.504;3.894;2023-07-13T02:32:04;101499.34;;;19.85;64.22
66398;BME280;54877;51.504;3.894;2023-07-13T02:34:30;101504.69;;;19.74;64.77
66398;BME280;54877;51.504;3.894;2023-07-13T02:36:55;101510.78;;;19.76;64.62
66398;BME280;54877;51.504;3.894;2023-07-13T02:39:20;101506.50;;;19.74;64.75
66398;BME280;54877;51.504;3.894;2023-07-13T02:41:46;101509.56;;;19.80;64.63
66398;BME280;54877;51.504;3.894;2023-07-13T02:44:15;101511.97;;;19.61;65.21
66398;BME280;54877;51.504;3.894;2023-07-13T02:46:40;101514.59;;;19.74;64.77
66398;BME280;54877;51.504;3.894;2023-07-13T02:49:06;101509.22;;;19.74;64.79
66398;BME280;54877;51.504;3.894;2023-07-13T02:51:31;101510.78;;;19.76;64.70
66398;BME280;54877;51.504;3.894;2023-07-13T02:53:59;101518.63;;;19.79;64.68
66398;BME280;54877;51.504;3.894;2023-07-13T02:56:26;101510.44;;;19.81;64.58
66398;BME280;54877;51.504;3.894;2023-07-13T02:58:53;101511.78;;;19.86;64.28
66398;BME280;54877;51.504;3.894;2023-07-13T03:01:20;101510.81;;;19.87;64.27
66398;BME280;54877;51.504;3.894;2023-07-13T03:03:47;101505.69;;;19.84;64.47
66398;BME280;54877;51.504;3.894;2023-07-13T03:06:13;101514.13;;;19.80;64.85
66398;BME280;54877;51.504;3.894;2023-07-13T03:08:39;101510.91;;;19.75;65.02
66398;BME280;54877;51.504;3.894;2023-07-13T03:11:09;101514.94;;;19.80;64.89
66398;BME280;54877;51.504;3.894;2023-07-13T03:13:37;101502.50;;;19.79;64.88
66398;BME280;54877;51.504;3.894;2023-07-13T03:16:04;101512.75;;;19.74;65.01
66398;BME280;54877;51.504;3.894;2023-07-13T03:18:30;101512.38;;;19.79;64.68
66398;BME280;54877;51.504;3.894;2023-07-13T03:20:56;101520.94;;;19.84;64.79
66398;BME280;54877;51.504;3.894;2023-07-13T03:23:21;101512.66;;;19.87;64.36
66398;BME280;54877;51.504;3.894;2023-07-13T03:25:47;101501.75;;;19.88;64.39
66398;BME280;54877;51.504;3.894;2023-07-13T03:28:13;101506.16;;;19.78;64.58
66398;BME280;54877;51.504;3.894;2023-07-13T03:30:40;101511.75;;;19.75;64.87
66398;BME280;54877;51.504;3.894;2023-07-13T03:33:06;101507.88;;;19.79;64.52
66398;BME280;54877;51.504;3.894;2023-07-13T03:35:32;101516.44;;;19.84;64.65
66398;BME280;54877;51.504;3.894;2023-07-13T03:37:58;101523.00;;;19.80;64.67
66398;BME280;54877;51.504;3.894;2023-07-13T03:40:25;101524.47;;;19.73;64.92
66398;BME280;54877;51.504;3.894;2023-07-13T03:42:51;101520.53;;;19.77;64.75
66398;BME280;54877;51.504;3.894;2023-07-13T03:45:17;101525.09;;;19.77;64.75
66398;BME280;54877;51.504;3.894;2023-07-13T03:47:43;101532.16;;;19.78;64.79
66398;BME280;54877;51.504;3.894;2023-07-13T03:50:09;101530.81;;;19.72;65.14
66398;BME280;54877;51.504;3.894;2023-07-13T03:52:34;101533.50;;;19.72;65.03
66398;BME280;54877;51.504;3.894;2023-07-13T03:55:00;101531.16;;;19.68;65.17
66398;BME280;54877;51.504;3.894;2023-07-13T03:57:25;101535.31;;;19.72;65.05
66398;BME280;54877;51.504;3.894;2023-07-13T03:59:50;101538.31;;;19.56;65.65
66398;BME280;54877;51.504;3.894;2023-07-13T04:02:16;101543.59;;;19.58;65.77
66398;BME280;54877;51.504;3.894;2023-07-13T04:04:42;101547.13;;;19.58;65.72
66398;BME280;54877;51.504;3.894;2023-07-13T04:07:08;101542.91;;;19.43;66.23
66398;BME280;54877;51.504;3.894;2023-07-13T04:09:34;101544.16;;;19.50;66.21
66398;BME280;54877;51.504;3.894;2023-07-13T04:12:00;101543.22;;;19.62;65.52
66398;BME280;54877;51.504;3.894;2023-07-13T04:14:25;101549.94;;;19.57;65.86
66398;BME280;54877;51.504;3.894;2023-07-13T04:16:51;101548.72;;;19.61;65.99
66398;BME280;54877;51.504;3.894;2023-07-13T04:19:16;101552.75;;;19.66;65.70
66398;BME280;54877;51.504;3.894;2023-07-13T04:21:41;101557.25;;;19.55;66.11
66398;BME280;54877;51.504;3.894;2023-07-13T04:24:07;101551.25;;;19.51;66.28
66398;BME280;54877;51.504;3.894;2023-07-13T04:26:32;101557.13;;;19.56;65.88
66398;BME280;54877;51.504;3.894;2023-07-13T04:29:01;101561.53;;;19.57;66.11
66398;BME280;54877;51.504;3.894;2023-07-13T04:31:28;101551.38;;;19.61;65.97
66398;BME280;54877;51.504;3.894;2023-07-13T04:33:54;101556.53;;;19.64;65.99
66398;BME280;54877;51.504;3.894;2023-07-13T04:36:19;101569.41;;;19.71;65.88
66398;BME280;54877;51.504;3.894;2023-07-13T04:38:45;101570.72;;;19.66;66.09
66398;BME280;54877;51.504;3.894;2023-07-13T04:41:10;101564.69;;;19.51;66.53
66398;BME280;54877;51.504;3.894;2023-07-13T04:43:36;101569.09;;;19.52;66.52
66398;BME280;54877;51.504;3.894;2023-07-13T04:46:05;101569.47;;;19.59;66.36
66398;BME280;54877;51.504;3.894;2023-07-13T04:48:34;101572.75;;;19.51;66.68
66398;BME280;54877;51.504;3.894;2023-07-13T04:51:00;101577.53;;;19.59;66.38
66398;BME280;54877;51.504;3.894;2023-07-13T04:53:26;101570.84;;;19.64;66.37
66398;BME280;54877;51.504;3.894;2023-07-13T04:55:52;101576.66;;;19.58;66.54
66398;BME280;54877;51.504;3.894;2023-07-13T04:58:18;101577.47;;;19.71;66.23
66398;BME280;54877;51.504;3.894;2023-07-13T05:00:44;101577.47;;;19.71;66.16
66398;BME280;54877;51.504;3.894;2023-07-13T05:03:09;101576.09;;;19.66;66.65
66398;BME280;54877;51.504;3.894;2023-07-13T05:05:35;101580.16;;;19.71;66.13
66398;BME280;54877;51.504;3.894;2023-07-13T05:08:00;101585.03;;;19.77;66.18
66398;BME280;54877;51.504;3.894;2023-07-13T05:10:26;101579.97;;;19.85;65.73
66398;BME280;54877;51.504;3.894;2023-07-13T05:12:51;101586.44;;;19.94;65.52
66398;BME280;54877;51.504;3.894;2023-07-13T05:15:17;101588.25;;;19.82;65.77
66398;BME280;54877;51.504;3.894;2023-07-13T05:17:46;101589.44;;;19.78;65.88
66398;BME280;54877;51.504;3.894;2023-07-13T05:20:12;101589.22;;;19.81;65.86
66398;BME280;54877;51.504;3.894;2023-07-13T05:22:38;101584.88;;;20.03;65.78
66398;BME280;54877;51.504;3.894;2023-07-13T05:25:04;101592.38;;;20.21;65.15
66398;BME280;54877;51.504;3.894;2023-07-13T05:27:31;101599.16;;;20.27;64.56
66398;BME280;54877;51.504;3.894;2023-07-13T05:29:57;101596.22;;;20.63;64.13
66398;BME280;54877;51.504;3.894;2023-07-13T05:32:23;101605.06;;;20.65;63.88
66398;BME280;54877;51.504;3.894;2023-07-13T05:34:48;101609.19;;;20.80;63.45
66398;BME280;54877;51.504;3.894;2023-07-13T05:37:14;101601.34;;;20.88;63.15
66398;BME280;54877;51.504;3.894;2023-07-13T05:39:39;101602.84;;;21.15;62.85
66398;BME280;54877;51.504;3.894;2023-07-13T05:42:05;101601.91;;;21.36;62.32
66398;BME280;54877;51.504;3.894;2023-07-13T05:44:31;101606.13;;;21.61;61.61
66398;BME280;54877;51.504;3.894;2023-07-13T05:46:56;101606.78;;;21.74;60.70
66398;BME280;54877;51.504;3.894;2023-07-13T05:49:22;101604.56;;;21.79;60.50
66398;BME280;54877;51.504;3.894;2023-07-13T05:51:48;101610.81;;;21.80;60.63
66398;BME280;54877;51.504;3.894;2023-07-13T05:54:14;101619.22;;;21.97;60.56
66398;BME280;54877;51.504;3.894;2023-07-13T05:56:39;101620.34;;;22.15;60.15
66398;BME280;54877;51.504;3.894;2023-07-13T05:59:04;101615.41;;;22.20;59.47
66398;BME280;54877;51.504;3.894;2023-07-13T06:01:30;101614.41;;;22.42;59.16
66398;BME280;54877;51.504;3.894;2023-07-13T06:03:56;101615.50;;;22.40;58.89
66398;BME280;54877;51.504;3.894;2023-07-13T06:06:22;101614.72;;;22.49;58.80
66398;BME280;54877;51.504;3.894;2023-07-13T06:08:47;101612.34;;;22.55;58.58
66398;BME280;54877;51.504;3.894;2023-07-13T06:11:17;101615.28;;;22.73;57.94
66398;BME280;54877;51.504;3.894;2023-07-13T06:13:47;101625.44;;;22.80;57.87
66398;BME280;54877;51.504;3.894;2023-07-13T06:16:12;101633.19;;;23.04;57.47
66398;BME280;54877;51.504;3.894;2023-07-13T06:18:39;101626.41;;;23.19;57.04
66398;BME280;54877;51.504;3.894;2023-07-13T06:21:06;101636.63;;;23.16;57.07
66398;BME280;54877;51.504;3.894;2023-07-13T06:23:35;101637.22;;;23.29;56.91
66398;BME280;54877;51.504;3.894;2023-07-13T06:26:01;101640.72;;;23.41;56.32
66398;BME280;54877;51.504;3.894;2023-07-13T06:28:28;101639.16;;;23.38;56.03
66398;BME280;54877;51.504;3.894;2023-07-13T06:30:53;101635.53;;;23.28;56.48
66398;BME280;54877;51.504;3.894;2023-07-13T06:33:19;101640.16;;;23.07;56.87
66398;BME280;54877;51.504;3.894;2023-07-13T06:35:44;101643.56;;;23.09;57.01
66398;BME280;54877;51.504;3.894;2023-07-13T06:38:10;101647.13;;;23.09;57.07
66398;BME280;54877;51.504;3.894;2023-07-13T06:40:35;101648.13;;;23.08;56.76
66398;BME280;54877;51.504;3.894;2023-07-13T06:43:00;101643.19;;;23.13;56.88
66398;BME280;54877;51.504;3.894;2023-07-13T06:45:26;101646.19;;;23.29;56.74
66398;BME280;54877;51.504;3.894;2023-07-13T06:47:51;101648.91;;;23.29;56.42
66398;BME280;54877;51.504;3.894;2023-07-13T06:50:17;101655.66;;;23.14;56.86
66398;BME280;54877;51.504;3.894;2023-07-13T06:52:42;101656.84;;;23.21;55.87
66398;BME280;54877;51.504;3.894;2023-07-13T06:55:07;101661.66;;;23.18;55.81
66398;BME280;54877;51.504;3.894;2023-07-13T06:57:33;101658.09;;;23.17;55.64
66398;BME280;54877;51.504;3.894;2023-07-13T06:59:59;101659.38;;;23.13;55.54
66398;BME280;54877;51.504;3.894;2023-07-13T07:02:24;101660.09;;;23.15;56.02
66398;BME280;54877;51.504;3.894;2023-07-13T07:04:50;101675.06;;;23.19;55.89
66398;BME280;54877;51.504;3.894;2023-07-13T07:07:15;101670.47;;;23.10;55.94
66398;BME280;54877;51.504;3.894;2023-07-13T07:09:41;101665.81;;;23.22;56.08
66398;BME280;54877;51.504;3.894;2023-07-13T07:12:06;101661.06;;;23.45;55.82
66398;BME280;54877;51.504;3.894;2023-07-13T07:14:32;101672.31;;;23.50;55.14
66398;BME280;54877;51.504;3.894;2023-07-13T07:16:59;101666.09;;;23.68;54.85
66398;BME280;54877;51.504;3.894;2023-07-13T07:19:24;101670.66;;;23.87;54.90
66398;BME280;54877;51.504;3.894;2023-07-13T07:21:50;101667.38;;;23.93;53.50
66398;BME280;54877;51.504;3.894;2023-07-13T07:24:15;101672.13;;;24.10;52.93
66398;BME280;54877;51.504;3.894;2023-07-13T07:26:41;101671.22;;;24.19;52.46
66398;BME280;54877;51.504;3.894;2023-07-13T07:29:06;101667.81;;;23.98;52.61
66398;BME280;54877;51.504;3.894;2023-07-13T07:31:31;101676.06;;;24.25;52.93
66398;BME280;54877;51.504;3.894;2023-07-13T07:33:57;101682.63;;;24.32;52.60
66398;BME280;54877;51.504;3.894;2023-07-13T07:36:22;101692.28;;;24.44;52.02
66398;BME280;54877;51.504;3.894;2023-07-13T07:38:48;101698.00;;;24.32;51.06
66398;BME280;54877;51.504;3.894;2023-07-13T07:41:13;101690.47;;;24.35;50.75
66398;BME280;54877;51.504;3.894;2023-07-13T07:43:39;101700.72;;;24.32;50.28
66398;BME280;54877;51.504;3.894;2023-07-13T07:46:04;101691.41;;;24.53;50.31
66398;BME280;54877;51.504;3.894;2023-07-13T07:48:30;101693.44;;;24.42;50.22
66398;BME280;54877;51.504;3.894;2023-07-13T07:50:56;101691.47;;;24.44;50.19
66398;BME280;54877;51.504;3.894;2023-07-13T07:53:21;101698.72;;;24.43;50.29
66398;BME280;54877;51.504;3.894;2023-07-13T07:55:47;101693.03;;;24.37;49.63
66398;BME280;54877;51.504;3.894;2023-07-13T07:58:13;101710.25;;;24.36;49.13
66398;BME280;54877;51.504;3.894;2023-07-13T08:00:38;101699.16;;;24.29;49.61
66398;BME280;54877;51.504;3.894;2023-07-13T08:03:03;101699.00;;;24.40;48.88
66398;BME280;54877;51.504;3.894;2023-07-13T08:05:29;101704.41;;;24.40;49.24
66398;BME280;54877;51.504;3.894;2023-07-13T08:07:54;101698.56;;;24.54;48.35
66398;BME280;54877;51.504;3.894;2023-07-13T08:10:20;101701.63;;;24.69;48.08
66398;BME280;54877;51.504;3.894;2023-07-13T08:12:45;101702.81;;;24.57;47.01
66398;BME280;54877;51.504;3.894;2023-07-13T08:15:12;101709.59;;;24.90;47.13
66398;BME280;54877;51.504;3.894;2023-07-13T08:17:39;101706.84;;;24.99;47.04
66398;BME280;54877;51.504;3.894;2023-07-13T08:20:05;101696.78;;;25.19;46.89
66398;BME280;54877;51.504;3.894;2023-07-13T08:22:30;101706.19;;;25.25;46.33
66398;BME280;54877;51.504;3.894;2023-07-13T08:24:56;101704.44;;;25.33;46.04
66398;BME280;54877;51.504;3.894;2023-07-13T08:27:22;101700.91;;;25.23;46.52
66398;BME280;54877;51.504;3.894;2023-07-13T08:29:49;101699.31;;;25.30;47.19
66398;BME280;54877;51.504;3.894;2023-07-13T08:32:14;101699.94;;;25.24;46.10
66398;BME280;54877;51.504;3.894;2023-07-13T08:34:40;101702.47;;;24.89;45.29
66398;BME280;54877;51.504;3.894;2023-07-13T08:37:06;101703.38;;;24.80;45.43
66398;BME280;54877;51.504;3.894;2023-07-13T08:39:32;101696.97;;;25.08;46.06
66398;BME280;54877;51.504;3.894;2023-07-13T08:42:04;101698.91;;;25.25;46.22
66398;BME280;54877;51.504;3.894;2023-07-13T08:47:19;101705.34;;;25.24;45.53
66398;BME280;54877;51.504;3.894;2023-07-13T08:49:48;101706.84;;;25.36;45.15
66398;BME280;54877;51.504;3.894;2023-07-13T08:52:23;101716.53;;;25.39;43.76
66398;BME280;54877;51.504;3.894;2023-07-13T08:57:59;101703.06;;;25.56;44.49
66398;BME280;54877;51.504;3.894;2023-07-13T09:00:37;101714.50;;;25.50;44.55
66398;BME280;54877;51.504;3.894;2023-07-13T09:03:18;101711.50;;;25.44;44.39
66398;BME280;54877;51.504;3.894;2023-07-13T09:05:49;101712.44;;;25.62;43.47
66398;BME280;54877;51.504;3.894;2023-07-13T09:11:04;101710.59;;;25.62;43.30
66398;BME280;54877;51.504;3.894;2023-07-13T09:13:48;101714.00;;;25.64;42.70
66398;BME280;54877;51.504;3.894;2023-07-13T09:16:21;101713.63;;;25.77;43.45
66398;BME280;54877;51.504;3.894;2023-07-13T09:18:48;101717.25;;;25.86;43.30
66398;BME280;54877;51.504;3.894;2023-07-13T09:23:43;101718.59;;;25.99;41.89
66398;BME280;54877;51.504;3.894;2023-07-13T09:28:46;101719.06;;;25.95;42.06
66398;BME280;54877;51.504;3.894;2023-07-13T09:31:15;101727.47;;;25.74;41.72
66398;BME280;54877;51.504;3.894;2023-07-13T09:33:47;101729.63;;;25.98;42.29
66398;BME280;54877;51.504;3.894;2023-07-13T09:36:23;101731.31;;;25.99;42.33
66398;BME280;54877;51.504;3.894;2023-07-13T09:41:45;101731.53;;;26.05;42.37
66398;BME280;54877;51.504;3.894;2023-07-13T09:44:17;101735.81;;;26.08;42.14
66398;BME280;54877;51.504;3.894;2023-07-13T09:46:54;101725.25;;;26.40;41.89
66398;BME280;54877;51.504;3.894;2023-07-13T09:49:24;101731.63;;;26.49;42.00
66398;BME280;54877;51.504;3.894;2023-07-13T09:51:57;101729.19;;;26.81;41.52
66398;BME280;54877;51.504;3.894;2023-07-13T09:54:25;101729.50;;;26.78;40.45
66398;BME280;54877;51.504;3.894;2023-07-13T09:56:54;101729.34;;;26.79;40.35
66398;BME280;54877;51.504;3.894;2023-07-13T09:59:28;101736.59;;;26.53;39.12
66398;BME280;54877;51.504;3.894;2023-07-13T10:01:55;101738.16;;;26.38;39.42
66398;BME280;54877;51.504;3.894;2023-07-13T10:04:25;101737.72;;;26.43;40.56
66398;BME280;54877;51.504;3.894;2023-07-13T10:07:04;101736.72;;;26.26;40.33
66398;BME280;54877;51.504;3.894;2023-07-13T10:09:31;101743.97;;;26.43;40.86
66398;BME280;54877;51.504;3.894;2023-07-13T10:11:57;101748.63;;;26.15;40.14
66398;BME280;54877;51.504;3.894;2023-07-13T10:14:23;101755.47;;;26.19;40.06
66398;BME280;54877;51.504;3.894;2023-07-13T10:16:51;101750.78;;;26.12;39.90
66398;BME280;54877;51.504;3.894;2023-07-13T10:19:27;101755.31;;;26.21;39.99
66398;BME280;54877;51.504;3.894;2023-07-13T10:24:39;101756.16;;;26.04;40.11
66398;BME280;54877;51.504;3.894;2023-07-13T10:27:19;101763.44;;;26.21;40.21
66398;BME280;54877;51.504;3.894;2023-07-13T10:30:33;101758.03;;;26.21;40.63
66398;BME280;54877;51.504;3.894;2023-07-13T10:32:48;101761.53;;;26.31;40.26
66398;BME280;54877;51.504;3.894;2023-07-13T10:35:16;101771.78;;;26.10;40.47
66398;BME280;54877;51.504;3.894;2023-07-13T10:38:05;101764.84;;;26.25;40.62
66398;BME280;54877;51.504;3.894;2023-07-13T10:40:40;101758.13;;;26.02;40.32
66398;BME280;54877;51.504;3.894;2023-07-13T10:43:16;101764.94;;;26.33;39.71
66398;BME280;54877;51.504;3.894;2023-07-13T10:45:46;101770.06;;;26.36;38.64
66398;BME280;54877;51.504;3.894;2023-07-13T10:48:16;101762.78;;;26.37;38.45
66398;BME280;54877;51.504;3.894;2023-07-13T10:50:43;101782.72;;;26.45;37.90
66398;BME280;54877;51.504;3.894;2023-07-13T10:53:18;101773.94;;;26.77;38.14
66398;BME280;54877;51.504;3.894;2023-07-13T11:01:12;101780.34;;;26.86;38.31
66398;BME280;54877;51.504;3.894;2023-07-13T11:03:54;101788.34;;;26.87;39.45
66398;BME280;54877;51.504;3.894;2023-07-13T11:08:55;101781.19;;;26.68;39.81
66398;BME280;54877;51.504;3.894;2023-07-13T11:18:50;101785.94;;;26.84;40.14
66398;BME280;54877;51.504;3.894;2023-07-13T11:21:28;101770.81;;;26.64;39.47
66398;BME280;54877;51.504;3.894;2023-07-13T11:24:05;101775.94;;;26.67;40.02
66398;BME280;54877;51.504;3.894;2023-07-13T11:29:53;101783.84;;;26.60;39.54
66398;BME280;54877;51.504;3.894;2023-07-13T11:31:57;101775.66;;;26.35;39.30
66398;BME280;54877;51.504;3.894;2023-07-13T11:34:35;101778.59;;;26.41;39.50
66398;BME280;54877;51.504;3.894;2023-07-13T11:37:03;101776.47;;;26.35;39.82
66398;BME280;54877;51.504;3.894;2023-07-13T11:39:39;101785.34;;;26.37;39.43
66398;BME280;54877;51.504;3.894;2023-07-13T11:42:10;101782.06;;;26.51;39.64
66398;BME280;54877;51.504;3.894;2023-07-13T11:44:43;101773.84;;;26.43;40.05
66398;BME280;54877;51.504;3.894;2023-07-13T11:47:16;101778.44;;;26.25;40.21
66398;BME280;54877;51.504;3.894;2023-07-13T11:49:48;101780.97;;;26.09;40.77
66398;BME280;54877;51.504;3.894;2023-07-13T11:52:19;101775.44;;;26.01;41.02
66398;BME280;54877;51.504;3.894;2023-07-13T11:54:54;101783.88;;;25.98;41.13
66398;BME280;54877;51.504;3.894;2023-07-13T11:57:25;101776.91;;;26.13;41.52
66398;BME280;54877;51.504;3.894;2023-07-13T11:59:56;101785.81;;;26.05;42.47
66398;BME280;54877;51.504;3.894;2023-07-13T12:02:28;101773.63;;;26.19;41.05
66398;BME280;54877;51.504;3.894;2023-07-13T12:04:56;101785.97;;;26.31;37.49
66398;BME280;54877;51.504;3.894;2023-07-13T12:07:23;101785.03;;;26.22;37.84
66398;BME280;54877;51.504;3.894;2023-07-13T12:09:49;101784.97;;;26.05;38.61
66398;BME280;54877;51.504;3.894;2023-07-13T12:12:20;101795.03;;;25.95;39.53
66398;BME280;54877;51.504;3.894;2023-07-13T12:14:50;101784.34;;;26.11;40.63
66398;BME280;54877;51.504;3.894;2023-07-13T12:17:24;101788.28;;;26.26;40.92
66398;BME280;54877;51.504;3.894;2023-07-13T12:19:51;101787.19;;;26.19;40.55
66398;BME280;54877;51.504;3.894;2023-07-13T12:22:18;101790.84;;;26.27;40.22
66398;BME280;54877;51.504;3.894;2023-07-13T12:24:45;101791.25;;;26.15;39.92
66398;BME280;54877;51.504;3.894;2023-07-13T12:27:19;101779.22;;;26.08;39.22
66398;BME280;54877;51.504;3.894;2023-07-13T12:29:52;101775.53;;;26.09;39.50
66398;BME280;54877;51.504;3.894;2023-07-13T12:32:24;101792.63;;;26.19;39.00
66398;BME280;54877;51.504;3.894;2023-07-13T12:34:54;101783.34;;;25.94;39.56
66398;BME280;54877;51.504;3.894;2023-07-13T12:37:21;101789.22;;;25.90;39.80
66398;BME280;54877;51.504;3.894;2023-07-13T12:39:48;101791.00;;;25.99;39.74
66398;BME280;54877;51.504;3.894;2023-07-13T12:44:53;101778.75;;;25.95;40.56
66398;BME280;54877;51.504;3.894;2023-07-13T12:47:21;101770.47;;;26.23;40.09
66398;BME280;54877;51.504;3.894;2023-07-13T12:49:53;101780.91;;;26.18;39.99
66398;BME280;54877;51.504;3.894;2023-07-13T12:52:24;101782.41;;;26.03;40.38
66398;BME280;54877;51.504;3.894;2023-07-13T12:54:58;101789.38;;;25.88;41.09
66398;BME280;54877;51.504;3.894;2023-07-13T12:57:29;101781.88;;;26.00;41.13
66398;BME280;54877;51.504;3.894;2023-07-13T12:59:55;101785.78;;;25.88;41.25
66398;BME280;54877;51.504;3.894;2023-07-13T13:02:32;101787.91;;;25.94;41.21
66398;BME280;54877;51.504;3.894;2023-07-13T13:05:00;101801.28;;;25.50;41.41
66398;BME280;54877;51.504;3.894;2023-07-13T13:07:28;101787.41;;;25.81;41.70
66398;BME280;54877;51.504;3.894;2023-07-13T13:09:54;101788.47;;;25.97;40.58
66398;BME280;54877;51.504;3.894;2023-07-13T13:12:20;101789.06;;;25.91;40.42
66398;BME280;54877;51.504;3.894;2023-07-13T13:14:46;101788.28;;;26.26;40.73
66398;BME280;54877;51.504;3.894;2023-07-13T13:17:22;101785.34;;;26.37;39.90
66398;BME280;54877;51.504;3.894;2023-07-13T13:19:50;101795.50;;;26.53;39.22
66398;BME280;54877;51.504;3.894;2023-07-13T13:22:19;101796.66;;;26.50;39.13
66398;BME280;54877;51.504;3.894;2023-07-13T13:24:44;101800.78;;;26.37;39.40
66398;BME280;54877;51.504;3.894;2023-07-13T13:27:14;101787.13;;;26.29;38.93
66398;BME280;54877;51.504;3.894;2023-07-13T13:29:42;101793.09;;;26.32;38.88
66398;BME280;54877;51.504;3.894;2023-07-13T13:32:11;101791.94;;;26.17;39.46